Terminal Aerodrome Forecast
Issued by NWS Grand Forks, ND

Home | Current Version | Previous Version | Text Only | Print | Product List | Glossary Off
Versions: 1 2 3 4 5 6 7 8 9 10 11 12 13 14 15 16

000
FTUS43 KFGF 221510 AAA
TAFGFK
TAF AMD
KGFK 221510Z 2215/2312 30015G24KT P6SM BKN030
     FM221800 30015G24KT P6SM BKN030
      TEMPO 2218/2222 4SM -SHRA OVC025
     FM230300 32011KT P6SM OVC025=

USA.gov is the U.S. government's official web portal to all federal, state and local government web resources and services.